Time;durP1;ratioP1;P1;durP2;ratioP2;P2;SDS_P1;SDS_P2;PMS_P1;PMS_P2;Temp;Humidity;BMP_temperature;BMP_pressure;BME280_temperature;BME280_humidity;BME280_pressure;Samples;Min_cycle;Max_cycle;Signal;HPM_P1;HPM_P2
2023/07/16 00:00:52;;;;;;;;;2.00;2.00;;;;;;;;5024525;28;28392;-96
2023/07/16 00:03:17;;;;;;;;;2.67;1.67;;;;;;;;5030902;28;28574;-95
2023/07/16 00:05:42;;;;;;;;;0.00;0.00;;;;;;;;5026457;28;28302;-96
2023/07/16 00:08:07;;;;;;;;;2.33;2.33;;;;;;;;5028872;28;28342;-96
2023/07/16 00:10:36;;;;;;;;;2.00;2.00;;;;;;;;5024994;28;28830;-96
2023/07/16 00:13:02;;;;;;;;;1.33;1.33;;;;;;;;5027823;28;29261;-95
2023/07/16 00:15:27;;;;;;;;;3.00;3.00;;;;;;;;5019069;28;28448;-96
2023/07/16 00:17:54;;;;;;;;;2.33;2.33;;;;;;;;5024064;28;28432;-95
2023/07/16 00:20:20;;;;;;;;;3.00;3.00;;;;;;;;5019096;28;28676;-96
2023/07/16 00:22:45;;;;;;;;;2.33;2.33;;;;;;;;5049763;28;28408;-96
2023/07/16 00:25:10;;;;;;;;;3.00;3.00;;;;;;;;5028094;28;28674;-96
2023/07/16 00:27:35;;;;;;;;;3.00;3.00;;;;;;;;5024082;28;28387;-95
2023/07/16 00:30:01;;;;;;;;;1.33;1.33;;;;;;;;5018867;28;28629;-96
2023/07/16 00:32:26;;;;;;;;;3.33;2.67;;;;;;;;5022375;28;28345;-96
2023/07/16 00:34:51;;;;;;;;;2.00;2.00;;;;;;;;5025916;28;28498;-96
2023/07/16 00:37:16;;;;;;;;;2.00;2.00;;;;;;;;5030500;28;28575;-96
2023/07/16 00:39:41;;;;;;;;;3.00;3.00;;;;;;;;5027692;28;28556;-95
2023/07/16 00:42:07;;;;;;;;;2.00;2.00;;;;;;;;5020360;28;30860;-96
2023/07/16 00:44:32;;;;;;;;;1.67;1.67;;;;;;;;5022533;28;28530;-96
2023/07/16 00:46:57;;;;;;;;;3.00;3.00;;;;;;;;5021970;28;28513;-96
2023/07/16 00:49:23;;;;;;;;;2.00;2.00;;;;;;;;5018817;28;28243;-96
2023/07/16 00:51:49;;;;;;;;;3.00;3.00;;;;;;;;5022807;28;28788;-96
2023/07/16 00:54:15;;;;;;;;;2.00;2.00;;;;;;;;5016073;28;28710;-95
2023/07/16 00:56:40;;;;;;;;;5.67;3.00;;;;;;;;5029819;28;28377;-95
2023/07/16 00:59:05;;;;;;;;;3.33;3.33;;;;;;;;5028074;28;28659;-96
2023/07/16 01:01:31;;;;;;;;;2.67;2.67;;;;;;;;5017417;28;28548;-95
2023/07/16 01:03:56;;;;;;;;;2.67;2.67;;;;;;;;5047294;28;28590;-95
2023/07/16 01:06:34;;;;;;;;;3.00;3.00;;;;;;;;5023245;28;28444;-95
2023/07/16 01:09:06;;;;;;;;;4.00;4.00;;;;;;;;5020467;28;28331;-96
2023/07/16 01:11:32;;;;;;;;;3.00;3.00;;;;;;;;5028970;28;28788;-96
2023/07/16 01:13:58;;;;;;;;;5.33;5.33;;;;;;;;5020763;28;28508;-96
2023/07/16 01:16:24;;;;;;;;;3.67;3.67;;;;;;;;5024780;28;28413;-96
2023/07/16 01:18:50;;;;;;;;;4.33;4.33;;;;;;;;5028507;28;28332;-96
2023/07/16 01:21:16;;;;;;;;;5.33;5.33;;;;;;;;5016733;28;29983;-95
2023/07/16 01:23:53;;;;;;;;;6.00;6.00;;;;;;;;5017132;28;28324;-95
2023/07/16 01:26:24;;;;;;;;;4.67;4.67;;;;;;;;5047970;28;28450;-96
2023/07/16 01:28:55;;;;;;;;;6.00;6.00;;;;;;;;5026482;28;28322;-95
2023/07/16 01:31:22;;;;;;;;;5.33;5.33;;;;;;;;5017803;28;28507;-96
2023/07/16 01:33:48;;;;;;;;;4.67;4.67;;;;;;;;5030753;28;28400;-95
2023/07/16 01:36:14;;;;;;;;;5.67;5.67;;;;;;;;5017828;28;28420;-96
2023/07/16 01:38:39;;;;;;;;;6.00;6.00;;;;;;;;5026641;28;28287;-96
2023/07/16 01:41:04;;;;;;;;;5.33;5.33;;;;;;;;5021284;28;29765;-96
2023/07/16 01:43:29;;;;;;;;;9.33;8.67;;;;;;;;5027744;28;28489;-95
2023/07/16 01:45:55;;;;;;;;;7.33;6.00;;;;;;;;5022586;28;28461;-96
2023/07/16 01:48:34;;;;;;;;;6.67;6.67;;;;;;;;5022025;28;28313;-95
2023/07/16 01:50:59;;;;;;;;;5.00;5.00;;;;;;;;5020586;28;28479;-96
2023/07/16 01:53:24;;;;;;;;;4.33;4.33;;;;;;;;5017366;28;28547;-95
2023/07/16 01:55:50;;;;;;;;;5.33;4.00;;;;;;;;5021236;28;28581;-95
2023/07/16 01:58:15;;;;;;;;;6.00;6.00;;;;;;;;5025684;28;28325;-95
2023/07/16 02:00:40;;;;;;;;;4.00;4.00;;;;;;;;5026642;28;28458;-95
2023/07/16 02:03:05;;;;;;;;;7.00;6.00;;;;;;;;5029273;28;28400;-96
2023/07/16 02:05:31;;;;;;;;;6.00;6.00;;;;;;;;5025561;28;28401;-96
2023/07/16 02:07:56;;;;;;;;;5.00;5.00;;;;;;;;5030873;28;28408;-95
2023/07/16 02:10:21;;;;;;;;;4.00;4.00;;;;;;;;5026571;28;28656;-96
2023/07/16 02:12:46;;;;;;;;;4.00;4.00;;;;;;;;5022677;28;28471;-95
2023/07/16 02:15:12;;;;;;;;;6.33;6.33;;;;;;;;5015929;28;28446;-96
2023/07/16 02:17:37;;;;;;;;;4.33;4.33;;;;;;;;5027081;28;28512;-96
2023/07/16 02:20:05;;;;;;;;;4.00;4.00;;;;;;;;5017910;28;29888;-95
2023/07/16 02:22:30;;;;;;;;;4.00;4.00;;;;;;;;5025587;28;28360;-94
2023/07/16 02:24:55;;;;;;;;;6.00;6.00;;;;;;;;5015060;28;28246;-96
2023/07/16 02:27:21;;;;;;;;;4.00;4.00;;;;;;;;5024362;28;28256;-95
2023/07/16 02:29:46;;;;;;;;;4.33;4.33;;;;;;;;5015220;28;29997;-96
2023/07/16 02:32:11;;;;;;;;;5.33;5.33;;;;;;;;5026873;28;29463;-96
2023/07/16 02:34:36;;;;;;;;;5.00;5.00;;;;;;;;5015122;28;28266;-95
2023/07/16 02:37:02;;;;;;;;;4.67;4.67;;;;;;;;5016928;28;28337;-96
2023/07/16 02:39:27;;;;;;;;;6.00;6.00;;;;;;;;5045253;28;29294;-95
2023/07/16 02:41:52;;;;;;;;;4.00;4.00;;;;;;;;5029498;28;28239;-96
2023/07/16 02:44:17;;;;;;;;;5.67;5.67;;;;;;;;5019875;28;28360;-95
2023/07/16 02:46:44;;;;;;;;;4.67;4.67;;;;;;;;5028673;28;28413;-95
2023/07/16 02:49:11;;;;;;;;;5.33;5.33;;;;;;;;5029600;28;30687;-95
2023/07/16 02:51:37;;;;;;;;;5.33;5.33;;;;;;;;5016811;28;28338;-96
2023/07/16 02:54:02;;;;;;;;;7.00;6.33;;;;;;;;5018025;28;28579;-95
2023/07/16 02:56:27;;;;;;;;;7.00;7.00;;;;;;;;5019711;28;28544;-95
2023/07/16 02:58:52;;;;;;;;;7.00;7.00;;;;;;;;5045009;28;29794;-95
2023/07/16 03:01:18;;;;;;;;;5.00;5.00;;;;;;;;5019641;28;28558;-95
2023/07/16 03:03:43;;;;;;;;;6.33;6.33;;;;;;;;5014768;28;28465;-95
2023/07/16 03:06:08;;;;;;;;;6.00;6.00;;;;;;;;5014887;28;28400;-95
2023/07/16 03:08:34;;;;;;;;;4.67;4.67;;;;;;;;5013091;28;29653;-96
2023/07/16 03:10:59;;;;;;;;;4.00;4.00;;;;;;;;5014110;28;28500;-95
2023/07/16 03:13:24;;;;;;;;;7.00;7.00;;;;;;;;5013091;28;28502;-95
2023/07/16 03:15:49;;;;;;;;;4.00;4.00;;;;;;;;5014078;28;28227;-94
2023/07/16 03:18:16;;;;;;;;;9.67;9.67;;;;;;;;5014666;28;28313;-96
2023/07/16 03:20:41;;;;;;;;;9.00;7.33;;;;;;;;5015133;28;28320;-95
2023/07/16 03:23:06;;;;;;;;;7.67;6.33;;;;;;;;5021205;28;28548;-95
2023/07/16 03:25:31;;;;;;;;;9.33;8.00;;;;;;;;5018663;28;28461;-95
2023/07/16 03:27:57;;;;;;;;;8.00;8.00;;;;;;;;5016382;28;29714;-96
2023/07/16 03:30:22;;;;;;;;;9.00;8.00;;;;;;;;5018506;28;28714;-95
2023/07/16 03:32:47;;;;;;;;;6.33;6.33;;;;;;;;5018847;28;28235;-95
2023/07/16 03:35:12;;;;;;;;;8.00;8.00;;;;;;;;5018781;28;28298;-95
2023/07/16 03:37:38;;;;;;;;;7.67;7.67;;;;;;;;5019124;28;29338;-95
2023/07/16 03:40:15;;;;;;;;;6.00;6.00;;;;;;;;5017014;28;28558;-96
2023/07/16 03:42:41;;;;;;;;;7.33;7.33;;;;;;;;5016796;28;29032;-95
2023/07/16 03:45:06;;;;;;;;;7.67;7.67;;;;;;;;5017739;28;28511;-96
2023/07/16 03:47:32;;;;;;;;;6.33;6.00;;;;;;;;5016212;28;29477;-95
2023/07/16 03:49:57;;;;;;;;;7.00;7.00;;;;;;;;5017461;28;29484;-95
2023/07/16 03:52:24;;;;;;;;;7.00;7.00;;;;;;;;5017085;28;28537;-94
2023/07/16 03:54:50;;;;;;;;;8.33;8.33;;;;;;;;5016315;28;28602;-95
2023/07/16 03:57:15;;;;;;;;;7.33;6.00;;;;;;;;5016398;28;29266;-95
2023/07/16 03:59:46;;;;;;;;;8.67;8.67;;;;;;;;5015884;28;29164;-95
2023/07/16 04:02:11;;;;;;;;;8.33;8.33;;;;;;;;5032230;28;28605;-95
2023/07/16 04:04:37;;;;;;;;;11.00;7.67;;;;;;;;5017849;28;28643;-95
2023/07/16 04:07:02;;;;;;;;;6.33;6.33;;;;;;;;5018021;28;28609;-95
2023/07/16 04:09:27;;;;;;;;;9.33;9.00;;;;;;;;5016117;28;28480;-95
2023/07/16 04:11:52;;;;;;;;;8.00;8.00;;;;;;;;5016101;28;28362;-95
2023/07/16 04:14:18;;;;;;;;;9.00;9.00;;;;;;;;5016342;28;28557;-95
2023/07/16 04:16:43;;;;;;;;;7.33;7.33;;;;;;;;5016517;28;29942;-95
2023/07/16 04:19:09;;;;;;;;;9.00;8.33;;;;;;;;5016331;28;28558;-94
2023/07/16 04:21:34;;;;;;;;;11.00;8.00;;;;;;;;5033393;28;28509;-95
2023/07/16 04:23:59;;;;;;;;;9.33;9.33;;;;;;;;5015622;28;28417;-95
2023/07/16 04:26:24;;;;;;;;;7.00;7.00;;;;;;;;5016877;28;28241;-95
2023/07/16 04:28:50;;;;;;;;;10.33;10.33;;;;;;;;5015701;28;28605;-95
2023/07/16 04:31:15;;;;;;;;;8.00;8.00;;;;;;;;5015513;28;29938;-94
2023/07/16 04:33:40;;;;;;;;;6.00;6.00;;;;;;;;5032308;28;28264;-94
2023/07/16 04:36:05;;;;;;;;;11.00;9.67;;;;;;;;5016698;28;28358;-95
2023/07/16 04:38:31;;;;;;;;;9.00;9.00;;;;;;;;5015100;28;29665;-94
2023/07/16 04:40:56;;;;;;;;;7.00;7.00;;;;;;;;5017215;28;28610;-94
2023/07/16 04:43:21;;;;;;;;;8.67;8.67;;;;;;;;5016095;28;28529;-94
2023/07/16 04:45:46;;;;;;;;;11.67;9.67;;;;;;;;5016519;28;29373;-93
2023/07/16 04:48:12;;;;;;;;;7.00;7.00;;;;;;;;5017401;28;28220;-95
2023/07/16 04:50:38;;;;;;;;;7.33;7.33;;;;;;;;5018114;28;28531;-94
2023/07/16 04:53:03;;;;;;;;;13.00;10.33;;;;;;;;5015622;28;28448;-94
2023/07/16 04:55:29;;;;;;;;;8.33;8.33;;;;;;;;5017051;28;29252;-94
2023/07/16 04:57:54;;;;;;;;;6.67;6.67;;;;;;;;5015032;28;28536;-95
2023/07/16 05:00:20;;;;;;;;;7.00;7.00;;;;;;;;5017211;28;28627;-95
2023/07/16 05:02:47;;;;;;;;;8.67;7.00;;;;;;;;5017636;28;28574;-94
2023/07/16 05:05:12;;;;;;;;;7.33;7.33;;;;;;;;5017824;28;29348;-96
2023/07/16 05:07:40;;;;;;;;;9.33;9.33;;;;;;;;5016252;28;28381;-95
2023/07/16 05:10:06;;;;;;;;;7.67;7.67;;;;;;;;5016328;28;28314;-94
2023/07/16 05:12:31;;;;;;;;;7.00;7.00;;;;;;;;5015357;28;28237;-94
2023/07/16 05:14:56;;;;;;;;;9.00;9.00;;;;;;;;5015979;28;29661;-94
2023/07/16 05:17:23;;;;;;;;;6.67;6.67;;;;;;;;5018932;28;28444;-95
2023/07/16 05:19:48;;;;;;;;;7.00;7.00;;;;;;;;5017801;28;28370;-94
2023/07/16 05:22:13;;;;;;;;;6.67;6.33;;;;;;;;5033012;28;29485;-95
2023/07/16 05:24:38;;;;;;;;;8.33;8.33;;;;;;;;5014770;28;28514;-94
2023/07/16 05:27:04;;;;;;;;;8.33;8.33;;;;;;;;5015503;28;28506;-94
2023/07/16 05:29:29;;;;;;;;;6.67;6.67;;;;;;;;5016709;28;28538;-95
2023/07/16 05:31:54;;;;;;;;;7.00;7.00;;;;;;;;5017080;28;28515;-95
2023/07/16 05:34:20;;;;;;;;;10.33;7.67;;;;;;;;5017364;28;28507;-95
2023/07/16 05:36:45;;;;;;;;;5.33;3.33;;;;;;;;5016131;28;28594;-95
2023/07/16 05:39:12;;;;;;;;;9.33;9.33;;;;;;;;5047017;28;28790;-95
2023/07/16 05:41:38;;;;;;;;;7.33;7.33;;;;;;;;5013826;28;28364;-95
2023/07/16 05:44:03;;;;;;;;;8.00;8.00;;;;;;;;5015602;28;28701;-95
2023/07/16 05:46:29;;;;;;;;;11.67;11.67;;;;;;;;5015126;28;28428;-94
2023/07/16 05:48:54;;;;;;;;;7.67;7.67;;;;;;;;5015150;28;28623;-95
2023/07/16 05:51:19;;;;;;;;;7.33;7.33;;;;;;;;5014960;28;28405;-95
2023/07/16 05:53:44;;;;;;;;;13.00;12.33;;;;;;;;5014174;28;29727;-95
2023/07/16 05:56:10;;;;;;;;;3.00;3.00;;;;;;;;5031141;28;28315;-94
2023/07/16 05:58:35;;;;;;;;;1.33;1.33;;;;;;;;5016667;28;28449;-95
2023/07/16 06:01:00;;;;;;;;;9.50;9.50;;;;;;;;5030237;28;28729;-95
2023/07/16 06:03:25;;;;;;;;;7.67;7.67;;;;;;;;5013550;28;28512;-95
2023/07/16 06:05:51;;;;;;;;;7.67;7.67;;;;;;;;5016234;28;28756;-95
2023/07/16 06:08:16;;;;;;;;;7.33;7.33;;;;;;;;5015936;28;28346;-95
2023/07/16 06:10:41;;;;;;;;;7.00;7.00;;;;;;;;5016070;28;28240;-95
2023/07/16 06:13:09;;;;;;;;;7.33;7.33;;;;;;;;5029014;28;29930;-95
2023/07/16 06:15:34;;;;;;;;;5.67;5.67;;;;;;;;5016564;28;28310;-95
2023/07/16 06:17:59;;;;;;;;;7.33;7.33;;;;;;;;5030545;28;29446;-94
2023/07/16 06:20:25;;;;;;;;;8.00;8.00;;;;;;;;5014602;28;28739;-94
2023/07/16 06:22:50;;;;;;;;;7.67;7.67;;;;;;;;5014512;28;29433;-95
2023/07/16 06:25:15;;;;;;;;;9.33;9.33;;;;;;;;5013977;28;28685;-95
2023/07/16 06:27:40;;;;;;;;;8.67;8.00;;;;;;;;5015086;28;28436;-94
2023/07/16 06:30:06;;;;;;;;;10.00;7.33;;;;;;;;5014281;28;28408;-95
2023/07/16 06:32:31;;;;;;;;;9.67;9.67;;;;;;;;5015107;28;28425;-95
2023/07/16 06:34:57;;;;;;;;;6.67;6.67;;;;;;;;5015345;28;28369;-95
2023/07/16 06:37:23;;;;;;;;;9.33;7.67;;;;;;;;5014896;28;28492;-95
2023/07/16 06:39:49;;;;;;;;;7.00;7.00;;;;;;;;5012359;28;28758;-95
2023/07/16 06:42:14;;;;;;;;;7.33;6.00;;;;;;;;5030622;28;28730;-95
2023/07/16 06:44:39;;;;;;;;;7.00;6.67;;;;;;;;5014398;28;28387;-96
2023/07/16 06:47:09;;;;;;;;;7.33;7.33;;;;;;;;5012953;28;28281;-94
2023/07/16 06:49:34;;;;;;;;;7.33;7.00;;;;;;;;5015318;28;28408;-96
2023/07/16 06:52:00;;;;;;;;;8.00;8.00;;;;;;;;5013392;28;31193;-96
2023/07/16 06:54:26;;;;;;;;;6.33;6.33;;;;;;;;5016850;28;28559;-95
2023/07/16 06:56:51;;;;;;;;;6.33;6.33;;;;;;;;5018835;28;28629;-95
2023/07/16 06:59:16;;;;;;;;;7.67;7.67;;;;;;;;5016944;28;28851;-95
2023/07/16 07:01:41;;;;;;;;;7.33;7.33;;;;;;;;5017223;28;28536;-95
2023/07/16 07:04:07;;;;;;;;;8.33;8.33;;;;;;;;5016816;28;28332;-95
2023/07/16 07:06:32;;;;;;;;;8.33;6.33;;;;;;;;5017293;28;28331;-96
2023/07/16 07:08:59;;;;;;;;;7.33;7.33;;;;;;;;5018160;28;29540;-95
2023/07/16 07:11:25;;;;;;;;;5.00;5.00;;;;;;;;5030273;28;28404;-95
2023/07/16 07:13:53;;;;;;;;;6.00;6.00;;;;;;;;5020076;28;28303;-96
2023/07/16 07:16:19;;;;;;;;;8.00;7.33;;;;;;;;5026211;28;28681;-95
2023/07/16 07:18:44;;;;;;;;;10.00;9.33;;;;;;;;5023368;28;28455;-96
2023/07/16 07:21:12;;;;;;;;;8.00;8.00;;;;;;;;5020009;28;29284;-95
2023/07/16 07:23:40;;;;;;;;;5.67;5.67;;;;;;;;5018685;28;28420;-96
2023/07/16 07:26:05;;;;;;;;;6.67;6.67;;;;;;;;5034677;28;28748;-96
2023/07/16 07:28:31;;;;;;;;;6.33;6.00;;;;;;;;5028610;28;28631;-95
2023/07/16 07:30:58;;;;;;;;;5.33;5.33;;;;;;;;5021117;28;28503;-95
2023/07/16 07:33:23;;;;;;;;;7.00;7.00;;;;;;;;5019927;28;28299;-95
2023/07/16 07:35:49;;;;;;;;;6.67;6.67;;;;;;;;5019316;28;28357;-95
2023/07/16 07:38:14;;;;;;;;;7.00;7.00;;;;;;;;5049040;28;28263;-96
2023/07/16 07:40:42;;;;;;;;;4.67;4.67;;;;;;;;5026337;28;29310;-96
2023/07/16 07:43:07;;;;;;;;;7.67;7.67;;;;;;;;5022844;28;28367;-96
2023/07/16 07:45:32;;;;;;;;;6.67;6.00;;;;;;;;5023469;28;28229;-95
2023/07/16 07:47:58;;;;;;;;;7.33;7.33;;;;;;;;5035123;28;28328;-94
2023/07/16 07:50:23;;;;;;;;;6.00;6.00;;;;;;;;5027573;28;30952;-89
2023/07/16 07:52:48;;;;;;;;;5.67;5.67;;;;;;;;5022701;28;28681;-89
2023/07/16 07:55:14;;;;;;;;;6.00;6.00;;;;;;;;5021854;28;28395;-90
2023/07/16 07:57:41;;;;;;;;;3.00;3.00;;;;;;;;5021777;28;28560;-89
2023/07/16 08:00:11;;;;;;;;;6.33;6.33;;;;;;;;5021762;28;28466;-89
2023/07/16 08:02:36;;;;;;;;;5.00;5.00;;;;;;;;5017404;28;28459;-89
2023/07/16 08:05:01;;;;;;;;;4.00;4.00;;;;;;;;5018473;28;28544;-89
2023/07/16 08:07:27;;;;;;;;;4.67;4.67;;;;;;;;5018913;28;28424;-89
2023/07/16 08:09:52;;;;;;;;;3.67;3.67;;;;;;;;5021478;28;30096;-89
2023/07/16 08:12:17;;;;;;;;;3.67;3.00;;;;;;;;5018100;28;28453;-92
2023/07/16 08:14:43;;;;;;;;;6.67;6.33;;;;;;;;5018068;28;28501;-92
2023/07/16 08:17:08;;;;;;;;;4.00;4.00;;;;;;;;5024661;28;28500;-94
2023/07/16 08:19:36;;;;;;;;;7.67;5.67;;;;;;;;5017792;28;29202;-96
2023/07/16 08:22:01;;;;;;;;;3.33;3.33;;;;;;;;5018872;28;28298;-96
2023/07/16 08:24:29;;;;;;;;;5.67;5.67;;;;;;;;5023079;28;28244;-96
2023/07/16 08:26:57;;;;;;;;;4.00;4.00;;;;;;;;5022916;28;28342;-89
2023/07/16 08:29:22;;;;;;;;;5.67;5.67;;;;;;;;5031141;28;28491;-90
2023/07/16 08:31:47;;;;;;;;;6.00;5.33;;;;;;;;5021951;28;28472;-90
2023/07/16 08:34:12;;;;;;;;;3.67;3.67;;;;;;;;5029050;28;28429;-90
2023/07/16 08:36:38;;;;;;;;;6.33;6.00;;;;;;;;5018778;28;28418;-90
2023/07/16 08:39:03;;;;;;;;;4.00;4.00;;;;;;;;5017275;28;28471;-90
2023/07/16 08:41:29;;;;;;;;;1.00;1.00;;;;;;;;5018507;28;28463;-90
2023/07/16 08:43:54;;;;;;;;;0.67;0.67;;;;;;;;5018923;28;28492;-90
2023/07/16 08:46:20;;;;;;;;;1.00;1.00;;;;;;;;5017336;28;28486;-90
2023/07/16 08:48:47;;;;;;;;;0.00;0.00;;;;;;;;5023557;28;28518;-90
2023/07/16 08:51:14;;;;;;;;;0.00;0.00;;;;;;;;5022747;28;28262;-90
2023/07/16 08:53:39;;;;;;;;;0.00;0.00;;;;;;;;5018400;28;28560;-91
2023/07/16 08:56:05;;;;;;;;;0.00;0.00;;;;;;;;5017583;28;28522;-90
2023/07/16 08:58:30;;;;;;;;;0.00;0.00;;;;;;;;5027212;28;28510;-90
2023/07/16 09:00:56;;;;;;;;;0.00;0.00;;;;;;;;5037782;28;29366;-90
2023/07/16 09:03:21;;;;;;;;;0.00;0.00;;;;;;;;5018538;28;28521;-91
2023/07/16 09:05:47;;;;;;;;;0.00;0.00;;;;;;;;5020670;28;28474;-91
2023/07/16 09:08:13;;;;;;;;;0.00;0.00;;;;;;;;5025097;28;28636;-90
2023/07/16 09:10:39;;;;;;;;;0.33;0.33;;;;;;;;5016858;28;28485;-89
2023/07/16 09:13:07;;;;;;;;;0.00;0.00;;;;;;;;5018684;28;28329;-93
2023/07/16 09:15:34;;;;;;;;;0.00;0.00;;;;;;;;5019285;28;28323;-90
2023/07/16 09:18:02;;;;;;;;;0.33;0.33;;;;;;;;5019335;28;30206;-91
2023/07/16 09:20:28;;;;;;;;;0.33;0.33;;;;;;;;5024634;28;29443;-90
2023/07/16 09:22:54;;;;;;;;;0.33;0.33;;;;;;;;5020782;28;28405;-89
2023/07/16 09:25:19;;;;;;;;;0.33;0.33;;;;;;;;5017818;28;28428;-90
2023/07/16 09:27:48;;;;;;;;;1.00;1.00;;;;;;;;5017896;28;28360;-89
2023/07/16 09:30:16;;;;;;;;;1.00;1.00;;;;;;;;5020734;28;28354;-89
2023/07/16 09:32:41;;;;;;;;;1.00;1.00;;;;;;;;5049436;28;28359;-89
2023/07/16 09:35:10;;;;;;;;;1.00;1.00;;;;;;;;5017235;28;28644;-90
2023/07/16 09:37:37;;;;;;;;;1.00;1.00;;;;;;;;5017627;28;28335;-90
2023/07/16 09:40:03;;;;;;;;;1.67;1.67;;;;;;;;5017217;28;28330;-90
2023/07/16 09:42:29;;;;;;;;;1.67;1.67;;;;;;;;5016212;28;28490;-91
2023/07/16 09:44:54;;;;;;;;;2.00;2.00;;;;;;;;5018044;28;28293;-91
2023/07/16 09:47:19;;;;;;;;;1.00;1.00;;;;;;;;5030318;28;30001;-91
2023/07/16 09:49:45;;;;;;;;;2.00;2.00;;;;;;;;5007965;28;28297;-91
2023/07/16 09:52:11;;;;;;;;;1.67;1.67;;;;;;;;5017445;28;28683;-91
2023/07/16 09:54:38;;;;;;;;;2.00;2.00;;;;;;;;5033013;28;28437;-91
2023/07/16 09:57:04;;;;;;;;;2.00;2.00;;;;;;;;5022396;28;28391;-91
2023/07/16 09:59:31;;;;;;;;;1.33;1.33;;;;;;;;5024969;28;28439;-91
2023/07/16 10:05:27;;;;;;;;;;;;;;;;;;;;;
2023/07/16 10:14:02;;;;;;;;;3.00;3.00;;;;;;;;5082073;28;28247;-93
2023/07/16 10:16:59;;;;;;;;;2.00;2.00;;;;;;;;5076083;28;28324;-93
2023/07/16 10:22:38;;;;;;;;;3.67;3.67;;;;;;;;5014331;28;28596;-93
2023/07/16 10:25:23;;;;;;;;;5.67;4.67;;;;;;;;5053395;28;28560;-90
2023/07/16 10:27:50;;;;;;;;;2.33;2.33;;;;;;;;5054661;28;28795;-92
2023/07/16 10:30:15;;;;;;;;;2.00;2.00;;;;;;;;5071234;28;29510;-90
2023/07/16 10:32:41;;;;;;;;;3.00;3.00;;;;;;;;5076855;28;28268;-91
2023/07/16 10:35:08;;;;;;;;;4.00;4.00;;;;;;;;5076307;28;28226;-90
2023/07/16 10:37:34;;;;;;;;;2.67;2.67;;;;;;;;5059030;28;28542;-92
2023/07/16 10:40:06;;;;;;;;;2.33;2.33;;;;;;;;5058641;28;29701;-95
2023/07/16 10:42:31;;;;;;;;;2.00;2.00;;;;;;;;5077302;28;28329;-91
2023/07/16 10:45:04;;;;;;;;;2.00;2.00;;;;;;;;5051980;28;28516;-91
2023/07/16 10:47:30;;;;;;;;;4.67;3.33;;;;;;;;5056674;28;28228;-90
2023/07/16 10:49:56;;;;;;;;;3.00;3.00;;;;;;;;5056788;28;30802;-91
2023/07/16 10:52:22;;;;;;;;;4.00;4.00;;;;;;;;5056753;28;28308;-91
2023/07/16 10:54:49;;;;;;;;;4.33;3.33;;;;;;;;5048680;28;28288;-93
2023/07/16 10:57:16;;;;;;;;;1.33;1.33;;;;;;;;5042215;28;28422;-93
2023/07/16 10:59:42;;;;;;;;;2.33;2.33;;;;;;;;5056876;28;28525;-91
2023/07/16 11:02:11;;;;;;;;;2.00;2.00;;;;;;;;5076238;28;28329;-95
2023/07/16 11:04:37;;;;;;;;;1.00;1.00;;;;;;;;5070047;28;28234;-91
2023/07/16 11:07:05;;;;;;;;;1.00;1.00;;;;;;;;5056675;28;28327;-91
2023/07/16 11:09:31;;;;;;;;;2.00;2.00;;;;;;;;5038243;28;28505;-91
2023/07/16 11:12:04;;;;;;;;;1.67;1.67;;;;;;;;5046136;28;30018;-91
2023/07/16 11:14:29;;;;;;;;;3.00;3.00;;;;;;;;5064987;28;28699;-91
2023/07/16 11:17:03;;;;;;;;;1.33;1.33;;;;;;;;5048912;28;29097;-90
2023/07/16 11:19:30;;;;;;;;;1.67;1.67;;;;;;;;5056283;28;28671;-90
2023/07/16 11:21:56;;;;;;;;;1.00;1.00;;;;;;;;5041767;28;365760;-92
2023/07/16 11:24:21;;;;;;;;;1.33;1.33;;;;;;;;5053907;28;28472;-92
2023/07/16 11:26:53;;;;;;;;;2.67;2.67;;;;;;;;5054548;28;28429;-91
2023/07/16 11:29:18;;;;;;;;;1.00;1.00;;;;;;;;5048362;28;28539;-91
2023/07/16 11:31:44;;;;;;;;;2.67;2.67;;;;;;;;5041921;28;28508;-92
2023/07/16 11:34:15;;;;;;;;;3.00;3.00;;;;;;;;5056223;28;28478;-92
2023/07/16 11:36:41;;;;;;;;;1.00;1.00;;;;;;;;5036709;28;28628;-93
2023/07/16 11:39:06;;;;;;;;;1.33;1.33;;;;;;;;5038234;28;28629;-92
2023/07/16 11:41:31;;;;;;;;;2.00;2.00;;;;;;;;5039050;28;28515;-92
2023/07/16 11:44:01;;;;;;;;;2.00;2.00;;;;;;;;5059038;28;28211;-92
2023/07/16 11:46:30;;;;;;;;;2.00;2.00;;;;;;;;5057403;28;28511;-92
2023/07/16 11:48:55;;;;;;;;;2.00;2.00;;;;;;;;5046055;28;28559;-92
2023/07/16 11:51:20;;;;;;;;;2.33;2.00;;;;;;;;5047735;28;29768;-93
2023/07/16 11:53:45;;;;;;;;;2.67;1.67;;;;;;;;5054601;28;28275;-92
2023/07/16 11:56:11;;;;;;;;;1.33;1.33;;;;;;;;5057705;28;28631;-92
2023/07/16 11:58:39;;;;;;;;;1.00;1.00;;;;;;;;4859162;28;4345231;-92
2023/07/16 12:01:04;;;;;;;;;1.00;1.00;;;;;;;;5057083;28;28407;-92
2023/07/16 12:03:29;;;;;;;;;1.00;1.00;;;;;;;;5059520;28;28481;-91
2023/07/16 12:05:55;;;;;;;;;1.00;1.00;;;;;;;;5059345;28;28336;-92
2023/07/16 12:08:20;;;;;;;;;1.33;1.33;;;;;;;;5054313;28;29381;-91
2023/07/16 12:10:45;;;;;;;;;1.00;1.00;;;;;;;;5057335;28;28507;-91
2023/07/16 12:13:10;;;;;;;;;1.00;1.00;;;;;;;;5043116;28;28423;-91
2023/07/16 12:15:35;;;;;;;;;0.00;0.00;;;;;;;;5044468;28;28436;-91
2023/07/16 12:18:01;;;;;;;;;2.00;2.00;;;;;;;;5048860;28;29283;-91
2023/07/16 12:20:26;;;;;;;;;0.00;0.00;;;;;;;;5057668;28;28437;-91
2023/07/16 12:22:51;;;;;;;;;0.33;0.33;;;;;;;;5058778;28;29043;-92
2023/07/16 12:25:18;;;;;;;;;1.00;1.00;;;;;;;;5049575;28;28559;-91
2023/07/16 12:27:43;;;;;;;;;1.00;1.00;;;;;;;;5054041;28;28346;-91
2023/07/16 12:30:09;;;;;;;;;0.67;0.67;;;;;;;;5055773;28;28264;-91
2023/07/16 12:32:34;;;;;;;;;2.00;2.00;;;;;;;;5053211;28;28285;-91
2023/07/16 12:35:00;;;;;;;;;0.00;0.00;;;;;;;;5071892;28;28700;-91
2023/07/16 12:37:26;;;;;;;;;0.00;0.00;;;;;;;;5053419;28;28411;-91
2023/07/16 12:39:51;;;;;;;;;0.00;0.00;;;;;;;;5052093;28;28532;-91
2023/07/16 12:42:16;;;;;;;;;0.00;0.00;;;;;;;;5053598;28;28574;-90
2023/07/16 12:44:41;;;;;;;;;0.67;0.67;;;;;;;;5052624;28;28551;-91
2023/07/16 12:47:08;;;;;;;;;0.67;0.67;;;;;;;;5044164;28;28476;-91
2023/07/16 12:49:33;;;;;;;;;0.00;0.00;;;;;;;;5044945;28;28681;-91
2023/07/16 12:51:58;;;;;;;;;1.00;1.00;;;;;;;;5054804;28;28601;-91
2023/07/16 12:54:24;;;;;;;;;1.33;1.33;;;;;;;;5054305;28;28339;-91
2023/07/16 12:56:49;;;;;;;;;0.00;0.00;;;;;;;;5055946;28;28599;-92
2023/07/16 12:59:14;;;;;;;;;0.67;0.67;;;;;;;;5050622;28;28652;-91
2023/07/16 13:01:39;;;;;;;;;0.67;0.67;;;;;;;;5052025;28;28445;-90
2023/07/16 13:04:05;;;;;;;;;1.00;1.00;;;;;;;;5046853;28;28637;-92
2023/07/16 13:06:30;;;;;;;;;0.00;0.00;;;;;;;;5048997;28;28540;-91
2023/07/16 13:08:55;;;;;;;;;1.33;0.00;;;;;;;;5051093;28;29558;-90
2023/07/16 13:11:21;;;;;;;;;0.33;0.33;;;;;;;;5050810;28;28402;-92
2023/07/16 13:13:46;;;;;;;;;0.00;0.00;;;;;;;;5052384;28;28374;-91
2023/07/16 13:16:11;;;;;;;;;0.00;0.00;;;;;;;;5043339;28;28428;-90
2023/07/16 13:18:37;;;;;;;;;1.00;1.00;;;;;;;;5049834;28;28485;-90
2023/07/16 13:21:03;;;;;;;;;1.00;1.00;;;;;;;;5052731;28;28361;-89
2023/07/16 13:23:28;;;;;;;;;1.00;1.00;;;;;;;;5054805;28;28410;-89
2023/07/16 13:25:54;;;;;;;;;0.00;0.00;;;;;;;;5052799;28;28464;-89
2023/07/16 13:28:20;;;;;;;;;1.00;1.00;;;;;;;;5054027;28;28906;-89
2023/07/16 13:30:45;;;;;;;;;1.00;1.00;;;;;;;;5046526;28;28389;-89
2023/07/16 13:33:10;;;;;;;;;3.00;2.00;;;;;;;;5046498;28;28625;-89
2023/07/16 13:35:35;;;;;;;;;1.00;1.00;;;;;;;;5052472;28;29582;-89
2023/07/16 13:38:02;;;;;;;;;1.00;1.00;;;;;;;;5047569;28;28321;-89
2023/07/16 13:43:17;;;;;;;;;1.00;1.00;;;;;;;;5046066;28;28483;-91
2023/07/16 13:45:45;;;;;;;;;0.00;0.00;;;;;;;;5055971;28;31207;-91
2023/07/16 13:54:54;;;;;;;;;0.33;0.33;;;;;;;;5056109;28;28724;-91
2023/07/16 13:57:49;;;;;;;;;;;;;;;;;;;;;
2023/07/16 14:06:09;;;;;;;;;0.00;0.00;;;;;;;;5049622;28;28299;-91
2023/07/16 14:08:59;;;;;;;;;1.00;1.00;;;;;;;;5054450;28;29589;-91
2023/07/16 14:11:57;;;;;;;;;;;;;;;;;;;;;
2023/07/16 14:14:25;;;;;;;;;1.00;1.00;;;;;;;;5055395;28;54279;-91
2023/07/16 14:16:53;;;;;;;;;2.00;1.67;;;;;;;;5054863;28;28570;-91
2023/07/16 14:19:21;;;;;;;;;1.67;1.33;;;;;;;;5056214;28;28485;-90
2023/07/16 14:22:16;;;;;;;;;;;;;;;;;;;;;
2023/07/16 14:24:42;;;;;;;;;0.00;0.00;;;;;;;;5047594;28;54490;-92
2023/07/16 14:31:26;;;;;;;;;0.00;0.00;;;;;;;;4954617;28;28556;-91
2023/07/16 14:33:53;;;;;;;;;0.00;0.00;;;;;;;;4956918;28;28375;-91
2023/07/16 14:36:23;;;;;;;;;1.00;1.00;;;;;;;;4958712;28;28772;-91
2023/07/16 14:41:36;;;;;;;;;1.00;1.00;;;;;;;;5045903;26;29422;-92
2023/07/16 14:44:12;;;;;;;;;3.00;3.00;;;;;;;;5110744;27;28419;-91
2023/07/16 14:47:03;;;;;;;;;1.67;1.67;;;;;;;;5088223;27;28318;-91
2023/07/16 16:05:53;;;;;;;;;;;;;;;;;;;;;
2023/07/16 16:11:12;;;;;;;;;1.00;1.00;;;;;;;;5010177;28;28454;-91
2023/07/16 16:14:08;;;;;;;;;1.00;1.00;;;;;;;;5018415;28;28517;-91
2023/07/16 16:24:06;;;;;;;;;;;;;;;;;;;;;
2023/07/16 16:32:54;;;;;;;;;2.00;2.00;;;;;;;;4897374;29;28552;-91
2023/07/16 16:54:40;;;;;;;;;1.00;1.00;;;;;;;;4237630;26;28344;-91
2023/07/16 16:57:41;;;;;;;;;;;;;;;;;;;;;
2023/07/16 17:00:18;;;;;;;;;2.00;2.00;;;;;;;;5057825;28;54377;-91
2023/07/16 17:02:45;;;;;;;;;2.00;2.00;;;;;;;;5059719;28;28505;-90
2023/07/16 17:05:10;;;;;;;;;2.33;2.33;;;;;;;;5056228;28;29696;-90
2023/07/16 17:08:02;;;;;;;;;2.00;2.00;;;;;;;;5058601;28;29465;-91
2023/07/16 17:13:40;;;;;;;;;1.67;1.67;;;;;;;;5075473;28;27895;-90
2023/07/16 17:16:08;;;;;;;;;2.33;2.33;;;;;;;;5076649;28;28374;-90